createdAt,value
2019-02-19T00:01:05.568Z,72.03
2019-02-19T00:03:36.872Z,71.57
2019-02-19T00:06:07.221Z,74.27
2019-02-19T00:08:37.978Z,74.37
2019-02-19T00:11:08.448Z,72.23
2019-02-19T00:13:38.685Z,71.90
2019-02-19T00:16:13.370Z,75.73
2019-02-19T00:18:43.358Z,73.13
2019-02-19T00:21:14.083Z,74.27
2019-02-19T00:23:44.346Z,76.27
2019-02-19T00:26:18.952Z,74.67
2019-02-19T00:28:49.304Z,74.87
2019-02-19T00:31:20.193Z,72.13
2019-02-19T00:33:50.464Z,77.33
2019-02-19T00:36:20.946Z,73.50
2019-02-19T00:38:51.218Z,71.70
2019-02-19T00:41:21.468Z,71.93
2019-02-19T00:43:51.910Z,71.13
2019-02-19T00:46:22.172Z,74.03
2019-02-19T00:48:52.662Z,73.50
2019-02-19T00:51:22.919Z,71.73
2019-02-19T00:53:53.419Z,73.80
2019-02-19T00:56:23.684Z,74.93
2019-02-19T00:58:54.168Z,71.87
2019-02-19T01:01:24.762Z,73.37
2019-02-19T01:03:56.155Z,75.00
2019-02-19T01:06:26.406Z,75.97
2019-02-19T01:08:56.628Z,71.90
2019-02-19T01:11:27.189Z,70.93
2019-02-19T01:13:57.600Z,72.90
2019-02-19T01:16:28.694Z,73.77
2019-02-19T01:18:59.357Z,71.43
2019-02-19T01:21:29.611Z,71.63
2019-02-19T01:23:59.879Z,70.10
2019-02-19T01:26:30.613Z,71.87
2019-02-19T01:29:00.993Z,75.10
2019-02-19T01:31:32.945Z,70.67
2019-02-19T01:34:03.203Z,71.97
2019-02-19T01:36:33.551Z,73.50
2019-02-19T01:39:05.711Z,74.10
2019-02-19T01:41:36.227Z,71.87
2019-02-19T01:44:07.981Z,76.77
2019-02-19T01:46:38.229Z,75.10
2019-02-19T01:49:09.215Z,72.70
2019-02-19T01:51:39.461Z,74.10
2019-02-19T01:54:10.109Z,75.70
2019-02-19T01:56:40.373Z,67.80
2019-02-19T01:59:10.627Z,73.13
2019-02-19T02:01:41.647Z,72.13
2019-02-19T02:04:12.769Z,72.80
2019-02-19T02:06:43.371Z,71.20
2019-02-19T02:09:13.630Z,73.33
2019-02-19T02:11:44.115Z,68.67
2019-02-19T02:14:14.365Z,68.60
2019-02-19T02:16:44.629Z,71.33
2019-02-19T02:19:15.114Z,71.90
2019-02-19T02:21:45.292Z,72.03
2019-02-19T02:24:15.563Z,67.43
2019-02-19T02:26:46.372Z,70.37
2019-02-19T02:29:16.629Z,71.43
2019-02-19T02:31:47.435Z,74.03
2019-02-19T02:34:17.696Z,72.97
2019-02-19T02:36:48.261Z,73.00
2019-02-19T02:39:18.471Z,73.90
2019-02-19T02:41:49.268Z,74.57
2019-02-19T02:44:19.571Z,76.63
2019-02-19T02:46:49.746Z,73.70
2019-02-19T02:49:20.328Z,73.13
2019-02-19T02:51:50.592Z,75.43
2019-02-19T02:54:20.970Z,74.23
2019-02-19T02:56:51.681Z,73.17
2019-02-19T02:59:22.329Z,74.30
2019-02-19T03:01:52.895Z,73.03
2019-02-19T03:04:24.632Z,68.30
2019-02-19T03:07:06.540Z,71.73
2019-02-19T03:09:37.153Z,72.13
2019-02-19T03:12:07.419Z,69.17
2019-02-19T03:14:37.675Z,72.13
2019-02-19T03:17:08.139Z,71.27
2019-02-19T03:19:38.496Z,72.77
2019-02-19T03:22:08.789Z,71.83
2019-02-19T03:24:39.623Z,71.57
2019-02-19T03:27:11.037Z,69.07
2019-02-19T03:29:41.391Z,67.67
2019-02-19T03:32:12.747Z,69.53
2019-02-19T03:34:42.998Z,67.30
2019-02-19T03:37:13.795Z,68.30
2019-02-19T03:39:44.057Z,71.90
2019-02-19T03:42:14.564Z,72.97
2019-02-19T03:44:44.878Z,69.47
2019-02-19T03:47:15.592Z,70.30
2019-02-19T03:49:45.778Z,68.10
2019-02-19T03:52:16.365Z,68.93
2019-02-19T03:54:46.825Z,70.40
2019-02-19T03:57:17.420Z,69.90
2019-02-19T03:59:47.989Z,67.73
2019-02-19T04:02:19.100Z,69.77
2019-02-19T04:04:50.830Z,68.30
2019-02-19T04:07:21.376Z,72.57
2019-02-19T04:09:51.673Z,74.40
2019-02-19T04:12:22.124Z,72.80
2019-02-19T04:14:52.419Z,76.20
2019-02-19T04:17:23.184Z,74.17
2019-02-19T04:19:53.447Z,73.37
2019-02-19T04:22:23.730Z,73.37
2019-02-19T04:24:54.461Z,71.33
2019-02-19T04:27:24.709Z,73.90
2019-02-19T04:29:54.983Z,69.83
2019-02-19T04:32:26.861Z,73.03
2019-02-19T04:34:57.162Z,75.60
2019-02-19T04:37:29.785Z,74.03
2019-02-19T04:39:59.718Z,71.80
2019-02-19T04:42:30.316Z,78.33
2019-02-19T04:45:00.716Z,74.47
2019-02-19T04:47:31.192Z,77.87
2019-02-19T04:50:01.440Z,77.07
2019-02-19T04:52:32.142Z,77.20
2019-02-19T04:55:02.398Z,79.40
2019-02-19T04:57:33.182Z,77.70
2019-02-19T05:00:05.842Z,79.80
2019-02-19T05:02:36.702Z,78.43
2019-02-19T05:05:07.976Z,76.47
2019-02-19T05:07:38.708Z,80.57
2019-02-19T05:10:09.191Z,78.30
2019-02-19T05:12:39.591Z,78.20
2019-02-19T05:15:10.399Z,78.73
2019-02-19T05:17:41.107Z,76.90
2019-02-19T05:20:11.392Z,79.13
2019-02-19T05:22:43.012Z,77.50
2019-02-19T05:25:13.370Z,76.13
2019-02-19T05:27:43.692Z,77.37
2019-02-19T05:30:14.374Z,78.90
2019-02-19T05:32:44.975Z,77.23
2019-02-19T05:35:15.757Z,78.47
2019-02-19T05:37:46.047Z,82.30
2019-02-19T05:40:16.790Z,79.17
2019-02-19T05:42:47.042Z,80.27
2019-02-19T05:45:17.509Z,80.03
2019-02-19T05:47:47.769Z,78.37
2019-02-19T05:50:18.585Z,78.23
2019-02-19T05:52:48.884Z,77.63
2019-02-19T05:55:19.411Z,77.70
2019-02-19T05:57:49.797Z,75.30
2019-02-19T06:00:20.062Z,77.77
2019-02-19T06:02:50.769Z,74.83
2019-02-19T06:05:21.983Z,76.67
2019-02-19T06:07:52.595Z,78.27
2019-02-19T06:10:22.841Z,76.67
2019-02-19T06:12:53.675Z,78.50
2019-02-19T06:15:23.957Z,77.80
2019-02-19T06:17:54.425Z,76.10
2019-02-19T06:20:24.646Z,75.00
2019-02-19T06:22:55.475Z,76.67
2019-02-19T06:25:25.766Z,76.00
2019-02-19T06:27:56.229Z,73.50
2019-02-19T06:30:26.479Z,75.53
2019-02-19T06:32:57.580Z,71.87
2019-02-19T06:35:27.899Z,73.70
2019-02-19T06:37:58.983Z,70.20
2019-02-19T06:40:30.109Z,70.80
2019-02-19T06:43:00.644Z,69.57
2019-02-19T06:45:30.901Z,67.27
2019-02-19T06:48:01.507Z,67.43
2019-02-19T06:50:31.914Z,68.87
2019-02-19T06:53:02.164Z,69.70
2019-02-19T06:55:32.650Z,67.03
2019-02-19T06:58:02.885Z,63.73
2019-02-19T07:00:33.402Z,65.97
2019-02-19T07:03:11.647Z,65.97
2019-02-19T07:05:43.171Z,63.13
2019-02-19T07:08:13.523Z,63.50
2019-02-19T07:10:43.853Z,62.77
2019-02-19T07:13:14.182Z,65.57
2019-02-19T07:15:44.430Z,60.97
2019-02-19T07:18:14.964Z,61.20
2019-02-19T07:20:45.357Z,60.03
2019-02-19T07:23:15.559Z,62.73
2019-02-19T07:25:46.703Z,58.23
2019-02-19T07:28:16.946Z,58.63
2019-02-19T07:30:47.757Z,56.03
2019-02-19T07:33:18.464Z,58.30
2019-02-19T07:35:48.714Z,54.90
2019-02-19T07:38:19.384Z,56.07
2019-02-19T07:40:49.652Z,54.20
2019-02-19T07:43:20.078Z,54.83
2019-02-19T07:45:52.170Z,53.60
2019-02-19T07:48:22.380Z,52.07
2019-02-19T07:50:52.670Z,54.33
2019-02-19T07:53:23.222Z,51.87
2019-02-19T07:55:53.462Z,48.43
2019-02-19T07:58:24.194Z,51.17
2019-02-19T08:00:54.438Z,51.90
2019-02-19T08:03:25.873Z,49.27
2019-02-19T08:05:57.200Z,48.90
2019-02-19T08:08:28.554Z,48.93
2019-02-19T08:10:58.988Z,47.87
2019-02-19T08:13:29.494Z,47.30
2019-02-19T08:15:59.778Z,46.20
2019-02-19T08:18:30.250Z,48.00
2019-02-19T08:21:00.535Z,45.77
2019-02-19T08:23:31.020Z,44.53
2019-02-19T08:26:01.290Z,44.90
2019-02-19T08:28:32.538Z,42.70
2019-02-19T08:31:02.991Z,45.63
2019-02-19T08:33:33.895Z,44.20
2019-02-19T08:36:04.405Z,45.03
2019-02-19T08:38:34.894Z,44.03
2019-02-19T08:41:05.147Z,43.60
2019-02-19T08:43:35.631Z,43.87
2019-02-19T08:46:05.787Z,43.50
2019-02-19T08:48:36.312Z,41.23
2019-02-19T08:51:06.535Z,42.37
2019-02-19T08:53:37.076Z,41.13
2019-02-19T08:56:07.312Z,38.93
2019-02-19T08:58:40.296Z,39.87
2019-02-19T09:01:10.550Z,37.90
2019-02-19T09:03:41.310Z,36.37
2019-02-19T09:06:12.219Z,34.23
2019-02-19T09:08:42.690Z,34.20
2019-02-19T09:11:12.906Z,33.47
2019-02-19T09:13:43.436Z,34.63
2019-02-19T09:16:13.720Z,32.70
2019-02-19T09:18:44.477Z,32.10
2019-02-19T09:21:14.766Z,31.57
2019-02-19T09:23:45.301Z,30.77
2019-02-19T09:26:17.407Z,32.13
2019-02-19T09:28:49.444Z,30.93
2019-02-19T09:31:37.879Z,30.27
2019-02-19T09:34:08.586Z,30.67
2019-02-19T09:36:39.381Z,30.53
2019-02-19T09:39:09.927Z,29.50
2019-02-19T09:41:40.776Z,29.77
2019-02-19T09:44:11.294Z,29.83
2019-02-19T09:46:41.538Z,28.50
2019-02-19T09:49:12.053Z,28.67
2019-02-19T09:51:42.345Z,27.93
2019-02-19T09:54:12.596Z,27.63
2019-02-19T09:56:43.303Z,28.30
2019-02-19T09:59:13.456Z,29.17
2019-02-19T10:01:43.854Z,28.67
2019-02-19T10:04:14.104Z,27.00
2019-02-19T10:06:45.281Z,27.30
2019-02-19T10:09:15.567Z,26.67
2019-02-19T10:11:46.174Z,26.27
2019-02-19T10:14:16.486Z,26.73
2019-02-19T10:16:46.737Z,25.93
2019-02-19T10:19:17.273Z,25.20
2019-02-19T10:21:47.538Z,24.70
2019-02-19T10:24:17.753Z,23.77
2019-02-19T10:26:49.644Z,23.90
2019-02-19T10:29:20.079Z,24.80
2019-02-19T10:31:50.907Z,23.63
2019-02-19T10:34:21.465Z,23.20
2019-02-19T10:36:53.011Z,22.10
2019-02-19T10:39:23.199Z,23.03
2019-02-19T10:41:53.783Z,22.73
2019-02-19T10:44:24.075Z,23.00
2019-02-19T10:46:54.831Z,22.97
2019-02-19T10:49:25.365Z,23.27
2019-02-19T10:51:55.864Z,22.47
2019-02-19T10:54:26.130Z,22.87
2019-02-19T10:56:56.731Z,23.23
2019-02-19T10:59:27.055Z,21.90
2019-02-19T11:01:58.007Z,22.30
2019-02-19T11:04:28.282Z,21.53
2019-02-19T11:07:00.291Z,20.83
2019-02-19T11:09:30.542Z,21.90
2019-02-19T11:12:01.338Z,21.13
2019-02-19T11:14:31.670Z,21.60
2019-02-19T11:17:02.153Z,21.00
2019-02-19T11:19:32.402Z,20.73
2019-02-19T11:22:03.151Z,20.03
2019-02-19T11:24:33.784Z,19.87
2019-02-19T11:27:04.514Z,19.40
2019-02-19T11:29:34.806Z,19.73
2019-02-19T11:32:05.293Z,19.47
2019-02-19T11:34:35.551Z,19.60
2019-02-19T11:37:06.334Z,18.80
2019-02-19T11:39:36.658Z,19.30
2019-02-19T11:42:07.078Z,18.97
2019-02-19T11:44:37.430Z,20.17
2019-02-19T11:47:07.888Z,18.83
2019-02-19T11:49:38.157Z,19.57
2019-02-19T11:52:08.513Z,18.90
2019-02-19T11:54:38.814Z,19.93
2019-02-19T11:57:09.336Z,20.10
2019-02-19T11:59:39.588Z,19.93
2019-02-19T12:02:14.148Z,20.33
2019-02-19T12:04:44.386Z,20.10
2019-02-19T12:07:16.189Z,18.80
2019-02-19T12:09:46.451Z,20.33
2019-02-19T12:12:17.122Z,20.90
2019-02-19T12:14:47.376Z,21.17
2019-02-19T12:17:17.862Z,19.50
2019-02-19T12:19:48.250Z,20.20
2019-02-19T12:22:18.811Z,19.03
2019-02-19T12:24:49.182Z,19.50
2019-02-19T12:27:19.682Z,19.57
2019-02-19T12:29:50.050Z,19.67
2019-02-19T12:32:20.728Z,19.67
2019-02-19T12:34:51.039Z,18.83
2019-02-19T12:37:22.413Z,19.63
2019-02-19T12:39:52.686Z,20.07
2019-02-19T12:42:23.148Z,19.03
2019-02-19T12:44:53.487Z,19.57
2019-02-19T12:47:24.216Z,17.80
2019-02-19T12:49:54.530Z,18.00
2019-02-19T12:52:24.998Z,18.37
2019-02-19T12:54:55.251Z,18.40
2019-02-19T12:57:25.547Z,19.13
2019-02-19T12:59:56.742Z,17.57
2019-02-19T13:02:27.249Z,17.47
2019-02-19T13:04:57.915Z,18.23
2019-02-19T13:07:29.275Z,17.33
2019-02-19T13:10:01.219Z,17.27
2019-02-19T13:12:31.653Z,17.07
2019-02-19T13:15:02.201Z,17.17
2019-02-19T13:17:34.067Z,16.43
2019-02-19T13:20:04.839Z,16.70
2019-02-19T13:22:35.109Z,17.77
2019-02-19T13:25:06.155Z,17.13
2019-02-19T13:27:36.453Z,17.10
2019-02-19T13:30:10.475Z,17.23
2019-02-19T13:32:40.774Z,17.90
2019-02-19T13:35:12.280Z,17.67
2019-02-19T13:37:43.238Z,17.70
2019-02-19T13:40:14.185Z,17.73
2019-02-19T13:42:44.470Z,17.80
2019-02-19T13:45:15.339Z,17.83
2019-02-19T13:47:46.892Z,18.47
2019-02-19T13:50:19.470Z,18.07
2019-02-19T13:53:14.733Z,19.50
2019-02-19T13:55:48.731Z,18.53
2019-02-19T13:58:18.959Z,18.80
2019-02-19T14:00:49.980Z,18.57
2019-02-19T14:03:20.249Z,18.47
2019-02-19T14:05:50.527Z,18.93
2019-02-19T14:08:22.007Z,19.47
2019-02-19T14:10:52.239Z,18.40
2019-02-19T14:13:22.689Z,18.77
2019-02-19T14:16:11.899Z,18.37
2019-02-19T14:18:56.631Z,18.97
2019-02-19T14:21:54.676Z,19.07
2019-02-19T14:24:56.429Z,19.03
2019-02-19T14:27:44.535Z,18.97
2019-02-19T14:30:23.292Z,19.60
2019-02-19T14:33:30.833Z,19.20
2019-02-19T14:36:10.266Z,18.83
2019-02-19T14:39:00.087Z,18.90
2019-02-19T14:41:49.349Z,19.00
2019-02-19T14:44:37.397Z,19.00
2019-02-19T14:47:37.449Z,17.67
2019-02-19T14:50:42.189Z,20.03
2019-02-19T14:53:31.853Z,19.07
2019-02-19T14:56:21.135Z,19.60
2019-02-19T14:59:08.829Z,20.70
2019-02-19T15:01:53.150Z,20.10
2019-02-19T15:04:41.044Z,20.13
2019-02-19T15:07:34.573Z,20.90
2019-02-19T15:10:32.073Z,20.07
2019-02-19T15:13:21.294Z,20.53
2019-02-19T15:16:13.986Z,21.13
2019-02-19T15:18:58.169Z,21.17
2019-02-19T15:21:50.976Z,22.50
2019-02-19T15:24:41.382Z,21.53
2019-02-19T15:27:49.181Z,21.60
2019-02-19T15:30:44.391Z,20.60
2019-02-19T15:33:39.914Z,21.30
2019-02-19T15:36:29.108Z,21.20
2019-02-19T15:39:21.934Z,22.40
2019-02-19T15:42:10.976Z,22.70
2019-02-19T15:44:53.692Z,22.37
2019-02-19T15:47:57.976Z,23.23
2019-02-19T15:50:46.105Z,24.00
2019-02-19T15:53:35.306Z,23.50
2019-02-19T15:56:31.373Z,24.63
2019-02-19T15:59:16.041Z,23.80
2019-02-19T16:01:56.125Z,22.80
2019-02-19T16:04:33.789Z,24.57
2019-02-19T16:07:29.712Z,24.30
2019-02-19T16:10:27.794Z,24.77
2019-02-19T16:13:07.606Z,24.80
2019-02-19T16:16:09.001Z,26.43
2019-02-19T16:19:04.414Z,25.73
2019-02-19T16:21:49.914Z,25.40
2019-02-19T16:24:43.855Z,26.53
2019-02-19T16:27:20.446Z,26.57
2019-02-19T16:30:04.495Z,25.97
2019-02-19T16:33:02.892Z,26.13
2019-02-19T16:35:43.123Z,26.47
2019-02-19T16:38:44.302Z,28.83
2019-02-19T16:41:29.767Z,26.97
2019-02-19T16:44:23.039Z,28.63
2019-02-19T16:47:04.674Z,30.00
2019-02-19T16:49:52.566Z,27.63
2019-02-19T16:52:34.587Z,30.97
2019-02-19T16:55:14.123Z,30.63
2019-02-19T16:57:52.572Z,30.93
2019-02-19T17:00:45.936Z,32.50
2019-02-19T17:03:30.144Z,33.47
2019-02-19T17:06:22.548Z,32.77
2019-02-19T17:09:12.097Z,33.30
2019-02-19T17:12:11.584Z,32.33
2019-02-19T17:15:05.706Z,31.23
2019-02-19T17:17:53.751Z,29.40
2019-02-19T17:20:49.153Z,30.17
2019-02-19T17:23:28.348Z,28.07
2019-02-19T17:26:19.700Z,28.83
2019-02-19T17:29:11.159Z,27.43
2019-02-19T17:31:59.498Z,28.00
2019-02-19T17:34:37.423Z,28.87
2019-02-19T17:37:16.815Z,27.20
2019-02-19T17:40:11.060Z,27.10
2019-02-19T17:42:47.043Z,28.37
2019-02-19T17:45:39.847Z,27.37
2019-02-19T17:48:24.367Z,30.53
2019-02-19T17:51:13.557Z,27.97
2019-02-19T17:53:56.425Z,27.93
2019-02-19T17:56:44.595Z,28.57
2019-02-19T17:59:37.732Z,30.37
2019-02-19T18:02:29.970Z,31.27
2019-02-19T18:05:25.358Z,31.63
2019-02-19T18:08:20.636Z,29.40
2019-02-19T18:11:05.413Z,30.13
2019-02-19T18:13:49.881Z,29.47
2019-02-19T18:16:43.182Z,29.73
2019-02-19T18:19:13.487Z,31.33
2019-02-19T18:21:43.643Z,33.10
2019-02-19T18:24:13.909Z,31.33
2019-02-19T18:26:44.867Z,31.93
2019-02-19T18:29:15.345Z,32.10
2019-02-19T18:31:46.039Z,32.10
2019-02-19T18:34:16.315Z,32.97
2019-02-19T18:36:47.095Z,31.27
2019-02-19T18:39:17.426Z,33.27
2019-02-19T18:41:47.819Z,33.70
2019-02-19T18:44:18.082Z,31.83
2019-02-19T18:46:48.912Z,32.60
2019-02-19T18:49:19.200Z,31.27
2019-02-19T18:51:49.807Z,33.70
2019-02-19T18:54:20.044Z,29.23
2019-02-19T18:56:50.433Z,33.20
2019-02-19T18:59:20.720Z,33.70
2019-02-19T19:01:51.241Z,34.13
2019-02-19T19:04:21.626Z,35.20
2019-02-19T19:06:52.542Z,36.07
2019-02-19T19:09:22.914Z,34.57
2019-02-19T19:11:54.204Z,35.77
2019-02-19T19:14:24.454Z,35.73
2019-02-19T19:16:56.500Z,41.10
2019-02-19T19:19:26.967Z,38.80
2019-02-19T19:21:58.706Z,41.13
2019-02-19T19:24:29.552Z,42.93
2019-02-19T19:27:00.388Z,42.13
2019-02-19T19:29:30.725Z,42.70
2019-02-19T19:32:01.525Z,43.23
2019-02-19T19:34:32.164Z,43.13
2019-02-19T19:37:03.272Z,45.07
2019-02-19T19:39:33.883Z,47.53
2019-02-19T19:42:04.585Z,47.03
2019-02-19T19:44:35.043Z,46.43
2019-02-19T19:47:06.245Z,46.67
2019-02-19T19:49:36.599Z,46.13
2019-02-19T19:52:07.691Z,41.33
2019-02-19T19:54:38.598Z,43.80
2019-02-19T19:57:09.144Z,43.30
2019-02-19T19:59:39.776Z,43.80
2019-02-19T20:02:10.483Z,42.00
2019-02-19T20:04:41.058Z,42.03
2019-02-19T20:07:12.023Z,40.80
2019-02-19T20:09:42.503Z,40.03
2019-02-19T20:12:14.928Z,37.77
2019-02-19T20:14:45.430Z,38.33
2019-02-19T20:17:17.058Z,37.00
2019-02-19T20:19:47.819Z,38.03
2019-02-19T20:22:18.542Z,35.17
2019-02-19T20:24:49.112Z,35.10
2019-02-19T20:27:19.937Z,34.80
2019-02-19T20:29:50.943Z,33.63
2019-02-19T20:32:21.899Z,34.40
2019-02-19T20:34:52.255Z,34.23
2019-02-19T20:37:23.287Z,34.53
2019-02-19T20:39:53.954Z,34.80
2019-02-19T20:42:24.681Z,34.47
2019-02-19T20:44:55.303Z,36.83
2019-02-19T20:47:26.780Z,37.00
2019-02-19T20:49:57.484Z,39.13
2019-02-19T20:52:29.811Z,38.63
2019-02-19T20:55:01.400Z,38.03
2019-02-19T20:57:33.349Z,37.13
2019-02-19T21:00:04.601Z,38.63
2019-02-19T21:02:37.151Z,38.53
2019-02-19T21:05:08.548Z,35.13
2019-02-19T21:07:39.420Z,34.97
2019-02-19T21:10:13.225Z,32.47
2019-02-19T21:12:44.898Z,35.37
2019-02-19T21:15:15.996Z,33.57
2019-02-19T21:17:48.009Z,33.50
2019-02-19T21:20:18.384Z,32.60
2019-02-19T21:22:49.573Z,30.70
2019-02-19T21:25:19.866Z,31.07
2019-02-19T21:27:50.727Z,29.90
2019-02-19T21:30:21.481Z,30.43
2019-02-19T21:32:52.260Z,30.03
2019-02-19T21:35:22.823Z,29.70
2019-02-19T21:37:53.843Z,31.07
2019-02-19T21:40:24.235Z,30.33
2019-02-19T21:42:55.132Z,31.07
2019-02-19T21:45:25.479Z,30.80
2019-02-19T21:47:56.515Z,30.73
2019-02-19T21:50:27.088Z,30.60
2019-02-19T21:52:58.202Z,31.33
2019-02-19T21:55:28.539Z,29.67
2019-02-19T21:57:59.738Z,30.30
2019-02-19T22:00:30.312Z,31.43
2019-02-19T22:03:01.513Z,32.23
2019-02-19T22:05:32.206Z,31.47
2019-02-19T22:08:03.099Z,30.87
2019-02-19T22:10:33.744Z,30.03
2019-02-19T22:13:04.339Z,30.87
2019-02-19T22:15:34.628Z,31.23
2019-02-19T22:18:07.763Z,30.70
2019-02-19T22:20:57.108Z,30.50
2019-02-19T22:23:27.726Z,29.57
2019-02-19T22:25:58.093Z,30.20
2019-02-19T22:28:29.847Z,29.87
2019-02-19T22:31:00.203Z,29.90
2019-02-19T22:33:30.711Z,29.17
2019-02-19T22:36:01.119Z,28.00
2019-02-19T22:38:31.963Z,28.77
2019-02-19T22:41:02.288Z,27.57
2019-02-19T22:43:33.015Z,28.00
2019-02-19T22:46:03.290Z,28.40
2019-02-19T22:48:34.090Z,28.13
2019-02-19T22:51:04.413Z,29.77
2019-02-19T22:53:57.024Z,30.40
2019-02-19T22:56:36.477Z,29.20
2019-02-19T22:59:07.255Z,29.67
2019-02-19T23:01:41.230Z,31.67
2019-02-19T23:04:12.288Z,32.57
2019-02-19T23:06:42.713Z,32.80
2019-02-19T23:09:13.326Z,32.73
2019-02-19T23:11:43.548Z,33.77
2019-02-19T23:14:14.086Z,33.33
2019-02-19T23:16:44.607Z,33.63
2019-02-19T23:19:16.388Z,34.23
2019-02-19T23:21:46.713Z,33.67
2019-02-19T23:24:17.537Z,32.33
2019-02-19T23:26:49.540Z,31.23
2019-02-19T23:29:20.034Z,31.37
2019-02-19T23:31:50.532Z,32.00
2019-02-19T23:34:20.778Z,31.20
2019-02-19T23:36:56.946Z,29.77
2019-02-19T23:39:27.779Z,29.23
2019-02-19T23:41:58.096Z,29.03
2019-02-19T23:44:28.626Z,27.17
2019-02-19T23:46:58.956Z,28.20
2019-02-19T23:49:29.788Z,28.97
2019-02-19T23:52:00.124Z,27.60
2019-02-19T23:54:32.078Z,27.57
2019-02-19T23:57:02.368Z,28.07
2019-02-19T23:59:32.630Z,25.10
